createdAt,value
2018-04-07T00:01:31.680Z,100546
2018-04-07T00:03:58.640Z,100540
2018-04-07T00:06:25.568Z,100524
2018-04-07T00:08:51.743Z,100530
2018-04-07T00:11:17.945Z,100524
2018-04-07T00:13:44.878Z,100519
2018-04-07T00:16:11.790Z,100524
2018-04-07T00:21:35.467Z,100518
2018-04-07T00:24:01.675Z,100523
2018-04-07T00:26:27.911Z,100519
2018-04-07T00:28:54.173Z,100505
2018-04-07T00:31:20.354Z,100507
2018-04-07T00:33:46.555Z,100506
2018-04-07T00:36:13.511Z,100501
2018-04-07T00:38:40.447Z,100505
2018-04-07T00:41:07.410Z,100504
2018-04-07T00:43:33.611Z,100504
2018-04-07T00:46:00.612Z,100507
2018-04-07T00:48:26.858Z,100508
2018-04-07T00:50:53.063Z,100492
2018-04-07T00:53:19.266Z,100499
2018-04-07T00:55:45.490Z,100507
2018-04-07T00:58:12.418Z,100508
2018-04-07T01:00:38.625Z,100505
2018-04-07T01:03:04.849Z,100498
2018-04-07T01:05:31.047Z,100490
2018-04-07T01:07:57.241Z,100501
2018-04-07T01:10:24.181Z,100505
2018-04-07T01:12:51.133Z,100497
2018-04-07T01:15:18.104Z,100509
2018-04-07T01:17:44.319Z,100497
2018-04-07T01:20:10.495Z,100503
2018-04-07T01:22:36.758Z,100490
2018-04-07T01:25:03.659Z,100491
2018-04-07T01:27:29.890Z,100497
2018-04-07T01:29:56.115Z,100484
2018-04-07T01:32:22.289Z,100487
2018-04-07T01:34:49.234Z,100488
2018-04-07T01:37:16.227Z,100489
2018-04-07T01:39:42.433Z,100491
2018-04-07T01:42:08.663Z,100478
2018-04-07T01:44:34.876Z,100481
2018-04-07T01:47:01.069Z,100472
2018-04-07T01:49:27.330Z,100476
2018-04-07T01:51:53.521Z,100467
2018-04-07T01:54:19.730Z,100470
2018-04-07T01:56:45.947Z,100462
2018-04-07T01:59:12.118Z,100463
2018-04-07T02:01:38.314Z,100458
2018-04-07T02:04:04.542Z,100454
2018-04-07T02:06:30.750Z,100450
2018-04-07T02:08:56.918Z,100453
2018-04-07T02:11:23.110Z,100453
2018-04-07T02:13:49.363Z,100451
2018-04-07T02:16:15.566Z,100442
2018-04-07T02:18:41.811Z,100443
2018-04-07T02:21:08.014Z,100432
2018-04-07T02:23:34.238Z,100437
2018-04-07T02:26:00.438Z,100440
2018-04-07T02:28:27.370Z,100425
2018-04-07T02:30:53.552Z,100423
2018-04-07T02:33:19.747Z,100420
2018-04-07T02:35:46.691Z,100424
2018-04-07T02:38:13.645Z,100421
2018-04-07T02:40:39.825Z,100425
2018-04-07T02:43:06.084Z,100425
2018-04-07T02:45:33.050Z,100423
2018-04-07T02:47:59.277Z,100419
2018-04-07T02:50:25.523Z,100430
2018-04-07T02:52:51.676Z,100433
2018-04-07T02:55:17.901Z,100421
2018-04-07T02:57:44.125Z,100427
2018-04-07T03:00:10.321Z,100426
2018-04-07T03:02:36.574Z,100419
2018-04-07T03:05:02.819Z,100415
2018-04-07T03:07:29.033Z,100416
2018-04-07T03:09:55.210Z,100424
2018-04-07T03:12:22.153Z,100418
2018-04-07T03:14:48.360Z,100413
2018-04-07T03:17:14.542Z,100418
2018-04-07T03:19:40.791Z,100415
2018-04-07T03:22:07.010Z,100421
2018-04-07T03:24:33.174Z,100420
2018-04-07T03:26:59.389Z,100405
2018-04-07T03:29:25.621Z,100424
2018-04-07T03:31:51.814Z,100418
2018-04-07T03:34:18.010Z,100415
2018-04-07T03:36:44.942Z,100415
2018-04-07T03:39:11.138Z,100408
2018-04-07T03:41:37.370Z,100420
2018-04-07T03:44:03.605Z,100417
2018-04-07T03:46:29.812Z,100413
2018-04-07T03:48:56.022Z,100407
2018-04-07T03:51:22.221Z,100403
2018-04-07T03:53:48.434Z,100411
2018-04-07T03:56:14.624Z,100413
2018-04-07T03:58:40.810Z,100411
2018-04-07T04:01:07.746Z,100402
2018-04-07T04:06:39.882Z,100411
2018-04-07T04:09:06.063Z,100409
2018-04-07T04:11:32.309Z,100414
2018-04-07T04:13:59.261Z,100415
2018-04-07T04:16:26.198Z,100415
2018-04-07T04:18:53.146Z,100415
2018-04-07T04:21:20.070Z,100406
2018-04-07T04:23:46.293Z,100412
2018-04-07T04:26:12.495Z,100405
2018-04-07T04:28:38.726Z,100392
2018-04-07T04:31:04.958Z,100413
2018-04-07T04:33:31.174Z,100395
2018-04-07T04:35:57.406Z,100399
2018-04-07T04:38:23.629Z,100393
2018-04-07T04:40:49.854Z,100401
2018-04-07T04:43:16.066Z,100400
2018-04-07T04:45:42.273Z,100404
2018-04-07T04:48:09.197Z,100389
2018-04-07T04:50:35.434Z,100396
2018-04-07T04:53:02.394Z,100390
2018-04-07T04:55:29.363Z,100387
2018-04-07T04:57:55.554Z,100384
2018-04-07T05:00:22.490Z,100378
2018-04-07T05:02:48.690Z,100382
2018-04-07T05:05:14.874Z,100383
2018-04-07T05:07:41.050Z,100388
2018-04-07T05:10:07.259Z,100390
2018-04-07T05:12:33.464Z,100389
2018-04-07T05:14:59.681Z,100399
2018-04-07T05:17:25.879Z,100392
2018-04-07T05:19:52.086Z,100394
2018-04-07T05:22:18.273Z,100391
2018-04-07T05:24:44.497Z,100396
2018-04-07T05:27:10.695Z,100397
2018-04-07T05:29:36.886Z,100399
2018-04-07T05:32:03.073Z,100399
2018-04-07T05:34:30.007Z,100402
2018-04-07T05:36:56.918Z,100396
2018-04-07T05:39:23.166Z,100399
2018-04-07T05:41:49.386Z,100400
2018-04-07T05:44:15.607Z,100393
2018-04-07T05:46:41.798Z,100384
2018-04-07T05:49:08.005Z,100399
2018-04-07T05:51:34.954Z,100410
2018-04-07T05:54:01.142Z,100406
2018-04-07T05:56:27.359Z,100399
2018-04-07T05:58:53.575Z,100394
2018-04-07T06:01:19.780Z,100410
2018-04-07T06:03:45.990Z,100398
2018-04-07T06:06:12.930Z,100404
2018-04-07T06:08:39.883Z,100411
2018-04-07T06:11:06.068Z,100405
2018-04-07T06:13:32.254Z,100404
2018-04-07T06:15:58.450Z,100399
2018-04-07T06:18:25.396Z,100398
2018-04-07T06:20:52.330Z,100409
2018-04-07T06:23:18.551Z,100403
2018-04-07T06:25:44.777Z,100400
2018-04-07T06:28:10.986Z,100400
2018-04-07T06:30:37.203Z,100390
2018-04-07T06:33:03.402Z,100401
2018-04-07T06:35:29.574Z,100401
2018-04-07T06:37:55.753Z,100405
2018-04-07T06:40:21.990Z,100395
2018-04-07T06:42:48.178Z,100404
2018-04-07T06:45:14.394Z,100387
2018-04-07T06:47:40.614Z,100387
2018-04-07T06:50:06.810Z,100403
2018-04-07T06:52:33.022Z,100395
2018-04-07T06:54:59.958Z,100379
2018-04-07T06:57:26.906Z,100393
2018-04-07T06:59:53.826Z,100374
2018-04-07T07:02:20.045Z,100383
2018-04-07T07:04:46.255Z,100372
2018-04-07T07:07:12.481Z,100370
2018-04-07T07:09:38.687Z,100382
2018-04-07T07:12:04.894Z,100368
2018-04-07T07:14:31.851Z,100374
2018-04-07T07:16:58.054Z,100373
2018-04-07T07:19:25.019Z,100382
2018-04-07T07:21:51.223Z,100369
2018-04-07T07:24:17.499Z,100371
2018-04-07T07:26:43.679Z,100373
2018-04-07T07:29:09.866Z,100369
2018-04-07T07:31:36.054Z,100375
2018-04-07T07:34:02.995Z,100367
2018-04-07T07:36:29.969Z,100370
2018-04-07T07:38:56.143Z,100363
2018-04-07T07:41:23.842Z,100364
2018-04-07T07:43:50.078Z,100360
2018-04-07T07:46:16.270Z,100364
2018-04-07T07:48:42.474Z,100376
2018-04-07T07:51:08.718Z,100365
2018-04-07T07:53:34.908Z,100359
2018-04-07T07:59:18.890Z,100358
2018-04-07T08:01:45.149Z,100356
2018-04-07T08:04:11.358Z,100351
2018-04-07T08:06:37.571Z,100342
2018-04-07T08:09:03.742Z,100352
2018-04-07T08:11:30.673Z,100350
2018-04-07T08:13:56.865Z,100354
2018-04-07T08:16:23.078Z,100355
2018-04-07T08:18:49.302Z,100349
2018-04-07T08:21:15.518Z,100361
2018-04-07T08:23:42.459Z,100350
2018-04-07T08:26:09.396Z,100360
2018-04-07T08:28:36.343Z,100353
2018-04-07T08:31:03.283Z,100351
2018-04-07T08:33:31.346Z,100342
2018-04-07T08:35:57.570Z,100351
2018-04-07T08:38:23.774Z,100340
2018-04-07T08:40:50.068Z,100344
2018-04-07T08:43:16.278Z,100339
2018-04-07T08:45:42.505Z,100344
2018-04-07T08:48:09.434Z,100345
2018-04-07T08:50:43.106Z,100341
2018-04-07T08:53:09.334Z,100344
2018-04-07T08:55:35.527Z,100342
2018-04-07T08:58:01.718Z,100339
2018-04-07T09:00:27.911Z,100335
2018-04-07T09:02:54.177Z,100324
2018-04-07T09:05:20.390Z,100332
2018-04-07T09:07:46.614Z,100330
2018-04-07T09:10:12.842Z,100337
2018-04-07T09:12:39.056Z,100334
2018-04-07T09:15:05.258Z,100325
2018-04-07T09:17:31.465Z,100318
2018-04-07T09:19:58.398Z,100317
2018-04-07T09:22:25.338Z,100324
2018-04-07T09:24:51.586Z,100330
2018-04-07T09:27:18.534Z,100320
2018-04-07T09:29:45.478Z,100333
2018-04-07T09:32:12.430Z,100321
2018-04-07T09:34:38.641Z,100335
2018-04-07T09:37:05.599Z,100319
2018-04-07T09:39:32.074Z,100332
2018-04-07T09:41:58.303Z,100334
2018-04-07T09:44:24.542Z,100336
2018-04-07T09:46:50.833Z,100330
2018-04-07T09:49:17.032Z,100325
2018-04-07T09:51:43.246Z,100319
2018-04-07T09:54:09.450Z,100322
2018-04-07T09:56:35.666Z,100311
2018-04-07T09:59:01.858Z,100320
2018-04-07T10:01:28.791Z,100318
2018-04-07T10:03:55.744Z,100308
2018-04-07T10:06:22.703Z,100313
2018-04-07T10:08:48.930Z,100306
2018-04-07T10:11:15.112Z,100301
2018-04-07T10:13:41.337Z,100309
2018-04-07T10:16:07.546Z,100307
2018-04-07T10:18:33.733Z,100302
2018-04-07T10:21:00.674Z,100306
2018-04-07T10:23:27.603Z,100296
2018-04-07T10:25:53.822Z,100297
2018-04-07T10:28:20.031Z,100301
2018-04-07T10:30:46.242Z,100300
2018-04-07T10:33:12.439Z,100294
2018-04-07T10:35:40.425Z,100294
2018-04-07T10:38:06.674Z,100284
2018-04-07T10:40:32.887Z,100289
2018-04-07T10:42:59.143Z,100286
2018-04-07T10:45:25.358Z,100288
2018-04-07T10:47:51.536Z,100283
2018-04-07T10:50:18.490Z,100281
2018-04-07T10:52:45.496Z,100280
2018-04-07T10:55:11.642Z,100279
2018-04-07T10:57:37.826Z,100275
2018-04-07T11:00:04.017Z,100278
2018-04-07T11:02:30.966Z,100269
2018-04-07T11:04:57.187Z,100267
2018-04-07T11:07:24.131Z,100268
2018-04-07T11:09:51.089Z,100264
2018-04-07T11:12:17.291Z,100263
2018-04-07T11:14:43.481Z,100262
2018-04-07T11:17:09.698Z,100261
2018-04-07T11:19:35.901Z,100263
2018-04-07T11:22:02.842Z,100267
2018-04-07T11:24:41.189Z,100261
2018-04-07T11:27:07.366Z,100271
2018-04-07T11:29:33.672Z,100270
2018-04-07T11:31:59.886Z,100254
2018-04-07T11:34:26.131Z,100269
2018-04-07T11:36:52.367Z,100264
2018-04-07T11:39:18.582Z,100260
2018-04-07T11:41:44.779Z,100266
2018-04-07T11:44:10.966Z,100251
2018-04-07T11:46:37.195Z,100257
2018-04-07T11:49:03.375Z,100253
2018-04-07T11:51:29.600Z,100249
2018-04-07T11:53:55.815Z,100249
2018-04-07T11:56:22.016Z,100240
2018-04-07T11:58:48.944Z,100236
2018-04-07T12:01:15.199Z,100241
2018-04-07T12:03:42.143Z,100224
2018-04-07T12:06:09.090Z,100228
2018-04-07T12:08:35.329Z,100221
2018-04-07T12:11:01.530Z,100229
2018-04-07T12:13:28.507Z,100221
2018-04-07T12:15:54.706Z,100228
2018-04-07T12:18:21.642Z,100217
2018-04-07T12:20:47.843Z,100220
2018-04-07T12:23:14.087Z,100219
2018-04-07T12:25:40.358Z,100225
2018-04-07T12:28:06.526Z,100214
2018-04-07T12:30:32.740Z,100214
2018-04-07T12:32:58.963Z,100209
2018-04-07T12:35:25.215Z,100212
2018-04-07T12:37:51.411Z,100210
2018-04-07T12:40:17.610Z,100203
2018-04-07T12:42:44.645Z,100207
2018-04-07T12:45:10.842Z,100203
2018-04-07T12:47:37.018Z,100204
2018-04-07T12:50:04.017Z,100193
2018-04-07T12:52:30.222Z,100196
2018-04-07T12:54:56.417Z,100195
2018-04-07T12:57:23.373Z,100196
2018-04-07T12:59:50.309Z,100187
2018-04-07T13:02:17.250Z,100184
2018-04-07T13:04:44.210Z,100178
2018-04-07T13:07:11.178Z,100187
2018-04-07T13:09:37.368Z,100179
2018-04-07T13:12:04.310Z,100180
2018-04-07T13:14:31.292Z,100180
2018-04-07T13:16:57.468Z,100174
2018-04-07T13:19:23.714Z,100166
2018-04-07T13:21:50.662Z,100169
2018-04-07T13:24:17.623Z,100160
2018-04-07T13:26:43.831Z,100174
2018-04-07T13:29:10.026Z,100166
2018-04-07T13:31:36.229Z,100168
2018-04-07T13:35:08.475Z,100150
2018-04-07T13:37:35.302Z,100151
2018-04-07T13:40:01.397Z,100145
2018-04-07T13:42:27.493Z,100158
2018-04-07T13:44:53.594Z,100147
2018-04-07T13:47:20.410Z,100151
2018-04-07T13:49:46.526Z,100147
2018-04-07T13:52:12.604Z,100159
2018-04-07T13:54:38.689Z,100142
2018-04-07T13:57:04.789Z,100152
2018-04-07T13:59:30.869Z,100147
2018-04-07T14:01:57.719Z,100139
2018-04-07T14:04:24.554Z,100140
2018-04-07T14:06:51.402Z,100128
2018-04-07T14:09:18.237Z,100137
2018-04-07T14:11:45.097Z,100132
2018-04-07T14:14:11.177Z,100126
2018-04-07T14:16:37.305Z,100130
2018-04-07T14:19:03.386Z,100129
2018-04-07T14:21:29.469Z,100132
2018-04-07T14:23:55.552Z,100122
2018-04-07T14:26:21.637Z,100111
2018-04-07T14:28:48.461Z,100111
2018-04-07T14:31:14.558Z,100106
2018-04-07T14:33:40.644Z,100109
2018-04-07T14:36:06.722Z,100099
2018-04-07T14:38:32.818Z,100093
2018-04-07T14:40:58.900Z,100086
2018-04-07T14:43:25.732Z,100086
2018-04-07T14:45:51.825Z,100082
2018-04-07T14:48:17.910Z,100078
2018-04-07T14:50:43.992Z,100078
2018-04-07T14:53:10.091Z,100074
2018-04-07T14:55:36.176Z,100076
2018-04-07T14:58:02.992Z,100077
2018-04-07T15:03:01.946Z,100074
2018-04-07T15:05:28.026Z,100075
2018-04-07T15:07:54.117Z,100064
2018-04-07T15:10:20.214Z,100075
2018-04-07T15:12:46.302Z,100059
2018-04-07T15:15:12.396Z,100060
2018-04-07T15:17:38.477Z,100064
2018-04-07T15:20:05.299Z,100066
2018-04-07T15:22:31.372Z,100062
2018-04-07T15:24:57.449Z,100052
2018-04-07T15:27:23.537Z,100058
2018-04-07T15:29:49.625Z,100054
2018-04-07T15:32:16.473Z,100044
2018-04-07T15:34:42.553Z,100046
2018-04-07T15:37:08.644Z,100044
2018-04-07T15:39:34.737Z,100033
2018-04-07T15:42:01.566Z,100027
2018-04-07T15:44:27.654Z,100030
2018-04-07T15:46:53.737Z,100036
2018-04-07T15:49:20.570Z,100024
2018-04-07T15:51:47.400Z,100022
2018-04-07T15:54:13.490Z,100016
2018-04-07T15:56:39.602Z,100029
2018-04-07T15:59:05.669Z,100018
2018-04-07T16:01:31.762Z,100009
2018-04-07T16:03:57.848Z,100013
2018-04-07T16:06:24.685Z,100010
2018-04-07T16:08:51.534Z,100014
2018-04-07T16:11:18.376Z,100012
2018-04-07T16:13:44.469Z,100006
2018-04-07T16:16:10.557Z,100005
2018-04-07T16:18:36.640Z,99999
2018-04-07T16:21:02.740Z,100009
2018-04-07T16:23:28.833Z,100005
2018-04-07T16:25:54.926Z,100011
2018-04-07T16:28:21.760Z,100005
2018-04-07T16:30:48.589Z,99999
2018-04-07T16:33:14.688Z,99999
2018-04-07T16:35:40.773Z,99997
2018-04-07T16:38:06.873Z,99996
2018-04-07T16:40:32.956Z,100001
2018-04-07T16:42:59.054Z,100000
2018-04-07T16:45:25.162Z,99996
2018-04-07T16:47:51.294Z,99989
2018-04-07T16:50:18.125Z,99993
2018-04-07T16:52:44.205Z,99998
2018-04-07T16:55:10.297Z,100003
2018-04-07T16:57:36.409Z,99996
2018-04-07T17:00:03.238Z,99995
2018-04-07T17:02:29.329Z,99991
2018-04-07T17:04:55.426Z,99997
2018-04-07T17:07:21.516Z,99994
2018-04-07T17:09:47.630Z,99988
2018-04-07T17:12:13.713Z,99999
2018-04-07T17:14:39.805Z,100002
2018-04-07T17:17:06.637Z,99991
2018-04-07T17:19:32.757Z,99992
2018-04-07T17:21:58.866Z,99991
2018-04-07T17:24:24.950Z,99987
2018-04-07T17:26:51.064Z,99986
2018-04-07T17:29:17.153Z,99993
2018-04-07T17:31:43.249Z,99993
2018-04-07T17:34:09.366Z,99986
2018-04-07T17:36:35.453Z,99995
2018-04-07T17:39:02.278Z,99993
2018-04-07T17:41:29.114Z,99984
2018-04-07T17:43:55.205Z,99990
2018-04-07T17:46:21.301Z,99998
2018-04-07T17:48:47.417Z,99982
2018-04-07T17:51:14.267Z,99982
2018-04-07T17:53:41.276Z,99998
2018-04-07T17:56:07.368Z,99987
2018-04-07T17:58:33.465Z,100009
2018-04-07T18:01:00.326Z,99993
2018-04-07T18:03:26.413Z,100000
2018-04-07T18:05:52.500Z,99996
2018-04-07T18:08:18.581Z,99995
2018-04-07T18:10:45.418Z,99998
2018-04-07T18:13:12.253Z,100009
2018-04-07T18:15:39.102Z,100003
2018-04-07T18:18:05.993Z,100005
2018-04-07T18:20:32.076Z,100011
2018-04-07T18:22:58.901Z,100004
2018-04-07T18:25:25.748Z,100003
2018-04-07T18:27:51.830Z,100005
2018-04-07T18:30:17.912Z,99999
2018-04-07T18:32:44.737Z,100009
2018-04-07T18:35:10.817Z,100000
2018-04-07T18:37:36.965Z,100003
2018-04-07T18:40:03.085Z,100002
2018-04-07T18:42:29.170Z,100001
2018-04-07T18:44:55.252Z,100002
2018-04-07T18:47:21.343Z,100010
2018-04-07T18:49:47.438Z,100006
2018-04-07T18:52:14.343Z,100009
2018-04-07T18:54:40.433Z,100012
2018-04-07T18:57:06.516Z,100010
2018-04-07T18:59:32.593Z,100016
2018-04-07T19:01:58.697Z,100019
2018-04-07T19:04:24.785Z,100020
2018-04-07T19:06:51.629Z,100007
2018-04-07T19:09:17.717Z,100012
2018-04-07T19:11:43.805Z,100017
2018-04-07T19:14:10.635Z,100018
2018-04-07T19:16:37.472Z,100016
2018-04-07T19:19:03.550Z,100021
2018-04-07T19:21:29.642Z,100009
2018-04-07T19:23:55.733Z,100020
2018-04-07T19:26:21.877Z,100020
2018-04-07T19:28:47.982Z,100011
2018-04-07T19:31:14.065Z,100017
2018-04-07T19:33:40.144Z,100016
2018-04-07T19:36:06.237Z,100010
2018-04-07T19:38:32.342Z,100016
2018-04-07T19:40:58.428Z,100012
2018-04-07T19:43:24.516Z,100011
2018-04-07T19:45:50.614Z,100016
2018-04-07T19:48:16.693Z,100016
2018-04-07T19:50:42.777Z,100011
2018-04-07T19:53:08.869Z,100007
2018-04-07T19:55:35.704Z,100016
2018-04-07T19:58:02.522Z,100007
2018-04-07T20:00:28.605Z,100013
2018-04-07T20:02:54.694Z,100013
2018-04-07T20:05:21.549Z,100003
2018-04-07T20:07:48.370Z,100003
2018-04-07T20:10:14.444Z,100008
2018-04-07T20:12:40.682Z,100008
2018-04-07T20:15:06.760Z,100006
2018-04-07T20:17:33.590Z,100000
2018-04-07T20:19:59.674Z,100004
2018-04-07T20:22:25.774Z,99999
2018-04-07T20:24:51.857Z,100012
2018-04-07T20:27:17.958Z,99998
2018-04-07T20:29:44.033Z,100003
2018-04-07T20:32:10.881Z,100000
2018-04-07T20:34:37.720Z,100004
2018-04-07T20:37:04.538Z,100004
2018-04-07T20:39:30.625Z,100005
2018-04-07T20:42:15.298Z,100006
2018-04-07T20:44:41.392Z,100005
2018-04-07T20:47:07.474Z,100003
2018-04-07T20:49:44.517Z,100024
2018-04-07T20:52:25.331Z,100015
2018-04-07T20:55:11.317Z,100021
2018-04-07T20:57:37.405Z,100010
2018-04-07T21:00:03.491Z,100021
2018-04-07T21:02:30.309Z,100018
2018-04-07T21:05:03.986Z,100015
2018-04-07T21:07:30.079Z,100023
2018-04-07T21:09:56.174Z,100018
2018-04-07T21:12:23.788Z,100011
2018-04-07T21:14:50.606Z,100017
2018-04-07T21:17:16.685Z,100016
2018-04-07T21:19:48.821Z,100012
2018-04-07T21:22:14.909Z,100006
2018-04-07T21:24:45.974Z,100009
2018-04-07T21:27:13.124Z,99998
2018-04-07T21:29:46.837Z,100012
2018-04-07T21:32:20.167Z,100004
2018-04-07T21:34:49.817Z,100009
2018-04-07T21:37:20.441Z,100001
2018-04-07T21:39:47.264Z,99999
2018-04-07T21:42:13.365Z,99994
2018-04-07T21:44:47.665Z,99977
2018-04-07T21:47:13.757Z,99999
2018-04-07T21:49:40.596Z,99990
2018-04-07T21:52:07.433Z,99999
2018-04-07T21:54:34.261Z,99988
2018-04-07T21:57:00.348Z,99995
2018-04-07T21:59:26.433Z,99996
2018-04-07T22:01:53.266Z,99987
2018-04-07T22:04:19.378Z,99993
2018-04-07T22:06:52.109Z,99987
2018-04-07T22:09:18.202Z,99987
2018-04-07T22:11:58.353Z,99995
2018-04-07T22:14:24.441Z,99995
2018-04-07T22:16:50.538Z,99990
2018-04-07T22:19:16.629Z,100002
2018-04-07T22:21:43.464Z,99999
2018-04-07T22:24:09.565Z,99992
2018-04-07T22:26:35.643Z,99993
2018-04-07T22:29:01.723Z,99989
2018-04-07T22:31:28.949Z,100000
2018-04-07T22:33:55.049Z,99984
2018-04-07T22:36:21.137Z,99987
2018-04-07T22:38:47.234Z,99993
2018-04-07T22:41:13.325Z,99984
2018-04-07T22:43:39.416Z,99994
2018-04-07T22:46:10.373Z,99990
2018-04-07T22:48:37.202Z,99987
2018-04-07T22:51:03.283Z,99997
2018-04-07T22:53:29.389Z,99995
2018-04-07T22:55:55.477Z,99990
2018-04-07T22:58:22.297Z,99987
2018-04-07T23:00:48.387Z,99987
2018-04-07T23:03:14.468Z,99988
2018-04-07T23:05:40.562Z,99981
2018-04-07T23:08:06.644Z,99986
2018-04-07T23:10:33.465Z,99979
2018-04-07T23:13:09.788Z,99981
2018-04-07T23:15:35.884Z,99969
2018-04-07T23:18:01.968Z,99972
2018-04-07T23:20:28.057Z,99975
2018-04-07T23:22:54.133Z,99972
2018-04-07T23:25:20.223Z,99971
2018-04-07T23:27:46.302Z,99966
2018-04-07T23:30:13.138Z,99969
2018-04-07T23:32:39.965Z,99973
2018-04-07T23:35:06.059Z,99980
2018-04-07T23:37:32.145Z,99977
2018-04-07T23:39:58.221Z,99969
2018-04-07T23:42:24.318Z,99966
2018-04-07T23:44:50.421Z,99964
2018-04-07T23:47:16.498Z,99959
2018-04-07T23:49:42.587Z,99959
2018-04-07T23:52:08.671Z,99962
2018-04-07T23:54:34.760Z,99945
2018-04-07T23:57:00.850Z,99931
2018-04-07T23:59:26.949Z,99949
